Time;durP1;ratioP1;P1;durP2;ratioP2;P2;SDS_P1;SDS_P2;PMS_P1;PMS_P2;Temp;Humidity;BMP_temperature;BMP_pressure;BME280_temperature;BME280_humidity;BME280_pressure;Samples;Min_cycle;Max_cycle;Signal;HPM_P1;HPM_P2
2023/03/25 00:00:16;;;;;;;2.78;1.40;;;12.50;49.10;;;;;;20473;6848;308391;-73
2023/03/25 00:02:40;;;;;;;3.77;1.20;;;12.60;49.30;;;;;;20701;6848;117424;-73
2023/03/25 00:05:06;;;;;;;1.23;0.90;;;12.70;49.20;;;;;;20678;6848;118053;-73
2023/03/25 00:07:32;;;;;;;2.60;1.33;;;12.50;49.50;;;;;;20499;6848;279216;-73
2023/03/25 00:09:57;;;;;;;1.98;1.30;;;12.60;51.40;;;;;;20451;6863;308365;-73
2023/03/25 00:12:25;;;;;;;1.33;1.20;;;12.80;49.50;;;;;;20639;6864;117930;-73
2023/03/25 00:14:54;;;;;;;2.03;1.20;;;12.80;50.00;;;;;;20493;6848;337170;-73
2023/03/25 00:17:20;;;;;;;0.90;0.90;;;12.60;49.70;;;;;;20665;6863;120459;-73
2023/03/25 00:19:49;;;;;;;0.70;0.70;;;12.60;49.70;;;;;;20670;6860;117431;-73
2023/03/25 00:22:12;;;;;;;1.05;0.85;;;12.10;50.30;;;;;;20642;6853;120612;-73
2023/03/25 00:24:38;;;;;;;1.10;1.00;;;12.10;50.30;;;;;;20692;6854;119616;-73
2023/03/25 00:27:03;;;;;;;1.92;1.12;;;11.90;50.60;;;;;;20485;6853;307881;-73
2023/03/25 00:29:29;;;;;;;1.98;0.88;;;12.10;51.10;;;;;;20746;6839;123773;-73
2023/03/25 00:31:54;;;;;;;1.23;1.02;;;12.10;50.80;;;;;;20538;6839;291824;-73
2023/03/25 00:34:20;;;;;;;0.88;0.75;;;12.30;50.90;;;;;;20725;6839;124563;-73
2023/03/25 00:36:47;;;;;;;1.00;1.00;;;12.20;50.50;;;;;;20529;6839;307438;-73
2023/03/25 00:39:12;;;;;;;0.87;0.80;;;12.30;50.80;;;;;;20735;6839;117292;-73
2023/03/25 00:41:40;;;;;;;1.67;0.90;;;12.20;50.60;;;;;;20526;6839;282484;-73
2023/03/25 00:44:03;;;;;;;1.00;0.70;;;12.20;50.60;;;;;;20738;6837;119356;-73
2023/03/25 00:46:31;;;;;;;1.17;0.70;;;12.10;50.30;;;;;;20513;6838;336104;-73
2023/03/25 00:48:57;;;;;;;1.25;0.93;;;12.20;49.50;;;;;;20527;6838;312127;-73
2023/03/25 00:51:23;;;;;;;2.33;0.70;;;12.40;48.60;;;;;;20734;6838;117141;-73
2023/03/25 00:53:51;;;;;;;1.43;0.70;;;12.00;49.30;;;;;;20736;6838;121224;-73
2023/03/25 00:56:15;;;;;;;1.07;0.80;;;12.00;49.30;;;;;;20510;6838;294909;-73
2023/03/25 00:58:40;;;;;;;1.03;0.50;;;12.00;49.20;;;;;;20752;6838;117932;-73
2023/03/25 01:01:09;;;;;;;1.25;0.73;;;12.00;49.30;;;;;;20529;6838;306701;-73
2023/03/25 01:03:36;;;;;;;1.07;0.83;;;12.10;49.30;;;;;;20710;6838;117738;-72
2023/03/25 01:06:00;;;;;;;1.20;0.65;;;12.00;49.10;;;;;;20524;6838;278207;-73
2023/03/25 01:08:28;;;;;;;1.05;0.62;;;12.00;49.10;;;;;;20709;6838;118908;-72
2023/03/25 01:10:51;;;;;;;1.30;0.68;;;11.90;49.00;;;;;;20521;6838;311933;-73
2023/03/25 01:13:17;;;;;;;0.77;0.77;;;12.10;48.80;;;;;;20503;6838;311877;-73
2023/03/25 01:15:43;;;;;;;0.70;0.53;;;12.10;48.80;;;;;;20740;6838;120863;-72
2023/03/25 01:18:09;;;;;;;1.23;0.70;;;12.00;48.80;;;;;;20509;6838;307516;-73
2023/03/25 01:20:34;;;;;;;1.92;0.70;;;11.90;48.90;;;;;;20529;6838;282120;-73
2023/03/25 01:22:59;;;;;;;1.52;0.50;;;12.00;48.70;;;;;;20523;6839;307458;-73
2023/03/25 01:25:25;;;;;;;0.40;0.33;;;12.20;48.40;;;;;;20738;6839;117625;-72
2023/03/25 01:27:51;;;;;;;1.63;0.70;;;11.90;48.50;;;;;;20522;6839;334680;-72
2023/03/25 01:30:17;;;;;;;1.08;0.70;;;12.00;48.90;;;;;;20508;6839;307649;-72
2023/03/25 01:32:42;;;;;;;0.70;0.60;;;11.90;49.40;;;;;;20738;6839;120489;-72
2023/03/25 01:35:09;;;;;;;2.87;0.82;;;11.70;48.90;;;;;;20738;6839;117289;-72
2023/03/25 01:37:35;;;;;;;1.30;0.60;;;11.40;50.00;;;;;;20520;6839;312484;-73
2023/03/25 01:40:01;;;;;;;1.05;0.80;;;11.60;49.60;;;;;;20528;6839;307252;-72
2023/03/25 01:42:26;;;;;;;1.53;0.77;;;11.60;49.60;;;;;;20501;6839;308304;-73
2023/03/25 01:44:52;;;;;;;1.10;0.88;;;12.00;49.30;;;;;;20530;6839;312435;-72
2023/03/25 01:47:18;;;;;;;2.57;0.70;;;12.00;49.40;;;;;;20736;6839;117670;-72
2023/03/25 01:49:45;;;;;;;2.07;0.83;;;11.50;49.60;;;;;;20736;6839;117231;-73
2023/03/25 01:52:10;;;;;;;1.30;0.80;;;11.50;50.00;;;;;;20503;6839;307282;-72
2023/03/25 01:54:37;;;;;;;2.33;0.75;;;11.60;50.70;;;;;;20735;6839;117429;-72
2023/03/25 01:57:01;;;;;;;1.17;0.80;;;11.50;50.70;;;;;;20526;6837;336743;-73
2023/03/25 01:59:27;;;;;;;1.05;0.60;;;11.60;50.50;;;;;;20528;6838;298038;-73
2023/03/25 02:01:56;;;;;;;1.37;0.62;;;11.90;50.20;;;;;;20527;6838;280853;-73
2023/03/25 02:04:33;;;;;;;1.20;0.65;;;12.30;49.40;;;;;;20497;6838;308064;-73
2023/03/25 02:06:57;;;;;;;1.13;0.70;;;12.30;49.40;;;;;;20511;6838;307312;-74
2023/03/25 02:09:23;;;;;;;2.10;0.50;;;12.40;49.10;;;;;;20731;6838;118769;-74
2023/03/25 02:11:49;;;;;;;0.53;0.53;;;12.20;49.20;;;;;;20726;6838;123053;-74
2023/03/25 02:14:14;;;;;;;1.33;0.50;;;11.80;49.70;;;;;;20651;6838;131476;-74
2023/03/25 02:16:44;;;;;;;1.13;0.50;;;11.50;50.40;;;;;;20501;6842;281886;-74
2023/03/25 02:19:34;;;;;;;0.50;0.40;;;11.50;50.30;;;;;;20701;6842;117318;-74
2023/03/25 02:22:24;;;;;;;0.87;0.40;;;11.50;50.20;;;;;;20713;6842;117611;-73
2023/03/25 02:24:52;;;;;;;0.40;0.40;;;11.20;50.50;;;;;;20718;6842;117409;-72
2023/03/25 02:27:25;;;;;;;0.90;0.50;;;10.90;50.80;;;;;;20519;6842;279974;-73
2023/03/25 02:29:54;;;;;;;0.95;0.50;;;11.00;50.80;;;;;;20492;6842;311380;-72
2023/03/25 02:32:43;;;;;;;0.50;0.50;;;11.40;50.60;;;;;;20684;6842;127571;-72
2023/03/25 02:35:31;;;;;;;0.57;0.40;;;11.30;50.40;;;;;;20484;6842;310208;-73
2023/03/25 02:38:05;;;;;;;0.87;0.50;;;11.40;50.30;;;;;;20496;6842;311309;-73
2023/03/25 02:40:32;;;;;;;1.33;0.60;;;11.70;49.80;;;;;;20648;6842;119980;-75
2023/03/25 02:43:08;;;;;;;2.87;0.50;;;11.20;50.10;;;;;;20671;6842;120260;-73
2023/03/25 02:45:34;;;;;;;0.67;0.40;;;11.30;50.00;;;;;;20375;6842;336755;-73
2023/03/25 02:48:19;;;;;;;0.93;0.47;;;11.30;50.00;;;;;;20510;6842;312026;-73
2023/03/25 02:50:45;;;;;;;1.00;0.50;;;11.50;49.70;;;;;;20707;6842;117355;-72
2023/03/25 02:53:11;;;;;;;1.53;0.63;;;11.50;49.70;;;;;;20705;6842;117820;-72
2023/03/25 02:55:40;;;;;;;1.70;0.50;;;11.30;51.00;;;;;;20500;6842;278220;-72
2023/03/25 02:58:03;;;;;;;1.47;0.30;;;11.30;51.40;;;;;;20712;6842;117580;-72
2023/03/25 03:00:29;;;;;;;0.37;0.37;;;11.20;50.80;;;;;;20690;6842;119959;-72
2023/03/25 03:03:02;;;;;;;0.55;0.50;;;10.80;50.90;;;;;;20503;6842;312148;-72
2023/03/25 03:05:30;;;;;;;1.12;0.50;;;10.80;50.50;;;;;;20520;6842;306700;-72
2023/03/25 03:08:18;;;;;;;1.87;0.57;;;10.90;50.10;;;;;;20727;6840;120411;-72
2023/03/25 03:11:05;;;;;;;1.67;0.50;;;10.70;50.50;;;;;;20726;6841;117285;-73
2023/03/25 03:14:03;;;;;;;0.75;0.50;;;10.30;52.10;;;;;;20494;6842;335890;-73
2023/03/25 03:16:57;;;;;;;0.63;0.33;;;10.50;51.60;;;;;;20499;6842;277999;-73
2023/03/25 03:19:45;;;;;;;1.90;0.30;;;10.50;51.60;;;;;;20409;6842;117744;-73
2023/03/25 03:22:20;;;;;;;0.70;0.40;;;10.30;51.70;;;;;;20704;6842;118437;-74
2023/03/25 03:24:46;;;;;;;1.10;0.40;;;9.90;53.30;;;;;;20511;6842;336097;-73
2023/03/25 03:27:22;;;;;;;0.57;0.50;;;10.00;53.60;;;;;;20711;6842;118305;-73
2023/03/25 03:29:47;;;;;;;0.87;0.50;;;10.00;53.40;;;;;;20695;6842;123985;-74
2023/03/25 03:32:12;;;;;;;0.45;0.40;;;9.80;54.70;;;;;;20480;6842;336508;-74
2023/03/25 03:34:43;;;;;;;1.70;0.50;;;10.00;54.70;;;;;;20496;6842;331570;-73
2023/03/25 03:37:03;;;;;;;0.80;0.50;;;10.30;54.40;;;;;;20461;6842;303813;-74
2023/03/25 03:39:32;;;;;;;0.50;0.50;;;10.60;54.10;;;;;;20500;6842;278255;-74
2023/03/25 03:41:58;;;;;;;1.52;0.60;;;11.00;53.00;;;;;;20500;6842;277468;-74
2023/03/25 03:44:24;;;;;;;1.43;0.40;;;10.90;52.90;;;;;;20693;6842;117844;-74
2023/03/25 03:46:53;;;;;;;0.43;0.40;;;10.70;52.90;;;;;;20710;6842;117323;-74
2023/03/25 03:49:19;;;;;;;0.70;0.60;;;10.40;53.40;;;;;;20503;6842;340638;-73
2023/03/25 03:51:44;;;;;;;1.00;0.50;;;10.40;53.90;;;;;;20517;6842;307050;-73
2023/03/25 03:54:13;;;;;;;0.90;0.40;;;10.60;53.50;;;;;;20475;6842;282074;-74
2023/03/25 03:56:45;;;;;;;1.63;0.70;;;10.90;53.20;;;;;;20513;6842;321264;-73
2023/03/25 03:59:07;;;;;;;0.67;0.40;;;11.00;52.60;;;;;;20730;6842;119854;-73
2023/03/25 04:01:44;;;;;;;1.50;0.47;;;10.80;52.60;;;;;;20510;6842;310879;-73
2023/03/25 04:04:05;;;;;;;0.47;0.40;;;10.80;53.20;;;;;;20715;6842;117250;-73
2023/03/25 04:06:37;;;;;;;0.87;0.50;;;10.60;53.10;;;;;;20717;6842;117848;-73
2023/03/25 04:09:04;;;;;;;0.50;0.50;;;10.30;53.50;;;;;;20519;6842;292116;-73
2023/03/25 04:11:47;;;;;;;0.60;0.50;;;10.40;53.90;;;;;;20630;6842;119496;-73
2023/03/25 04:14:14;;;;;;;0.70;0.57;;;10.10;53.90;;;;;;20687;6842;118424;-74
2023/03/25 04:16:39;;;;;;;0.90;0.60;;;10.00;53.90;;;;;;20518;6842;297838;-74
2023/03/25 04:19:05;;;;;;;0.70;0.60;;;10.20;54.50;;;;;;20521;6840;306476;-74
2023/03/25 04:21:30;;;;;;;0.88;0.62;;;10.50;54.10;;;;;;20525;6841;308799;-74
2023/03/25 04:24:00;;;;;;;0.83;0.40;;;10.70;53.50;;;;;;20736;6842;117116;-74
2023/03/25 04:26:22;;;;;;;1.45;0.60;;;10.30;53.90;;;;;;20704;6842;119971;-73
2023/03/25 04:28:48;;;;;;;1.87;0.63;;;10.30;53.80;;;;;;20737;6842;117299;-73
2023/03/25 04:31:14;;;;;;;1.50;0.70;;;10.10;54.30;;;;;;20737;6842;119467;-73
2023/03/25 04:33:39;;;;;;;2.92;0.70;;;9.90;55.70;;;;;;20513;6842;336399;-73
2023/03/25 04:36:06;;;;;;;0.67;0.40;;;10.00;54.90;;;;;;20731;6842;117473;-73
2023/03/25 04:38:32;;;;;;;1.90;0.30;;;9.90;55.70;;;;;;20710;6842;117287;-74
2023/03/25 04:40:59;;;;;;;0.90;0.60;;;10.00;54.80;;;;;;20516;6842;308290;-73
2023/03/25 04:43:24;;;;;;;1.50;0.70;;;10.00;54.80;;;;;;20517;6842;308100;-73
2023/03/25 04:45:52;;;;;;;0.63;0.50;;;10.40;54.20;;;;;;20731;6842;117284;-73
2023/03/25 04:48:23;;;;;;;0.82;0.70;;;10.30;53.80;;;;;;20492;6842;296600;-74
2023/03/25 04:50:47;;;;;;;1.50;0.70;;;10.40;54.00;;;;;;20733;6842;117290;-73
2023/03/25 04:53:13;;;;;;;1.45;0.80;;;10.20;53.80;;;;;;20527;6842;297978;-73
2023/03/25 04:55:46;;;;;;;1.27;0.60;;;10.30;54.10;;;;;;20741;6842;117718;-73
2023/03/25 04:58:06;;;;;;;1.23;0.70;;;10.10;53.80;;;;;;20713;6842;118374;-73
2023/03/25 05:00:29;;;;;;;1.43;0.70;;;9.90;55.20;;;;;;20715;6842;119374;-73
2023/03/25 05:02:55;;;;;;;0.60;0.60;;;9.70;55.60;;;;;;20726;6842;120274;-73
2023/03/25 05:05:20;;;;;;;2.20;0.77;;;9.50;56.00;;;;;;20728;6842;121119;-73
2023/03/25 05:07:48;;;;;;;1.17;0.50;;;9.50;56.70;;;;;;20509;6842;337221;-73
2023/03/25 05:10:12;;;;;;;1.43;0.60;;;9.50;56.70;;;;;;20703;6842;120225;-73
2023/03/25 05:12:38;;;;;;;0.93;0.60;;;9.60;56.20;;;;;;20727;6842;119896;-73
2023/03/25 05:15:04;;;;;;;1.73;0.60;;;9.40;56.30;;;;;;20722;6842;118271;-73
2023/03/25 05:17:29;;;;;;;2.17;0.77;;;9.30;56.60;;;;;;20513;6842;277718;-73
2023/03/25 05:19:55;;;;;;;1.53;1.07;;;9.50;57.40;;;;;;20527;6842;278376;-73
2023/03/25 05:22:21;;;;;;;1.07;0.80;;;9.90;56.20;;;;;;20713;6842;117113;-73
2023/03/25 05:24:46;;;;;;;1.87;1.10;;;9.90;55.70;;;;;;20517;6842;344916;-73
2023/03/25 05:27:12;;;;;;;2.10;0.70;;;9.90;55.60;;;;;;20730;6842;117070;-73
2023/03/25 05:29:37;;;;;;;2.13;0.93;;;9.80;55.40;;;;;;20528;6842;277894;-74
2023/03/25 05:32:03;;;;;;;1.52;0.95;;;9.90;55.10;;;;;;20520;6841;279054;-74
2023/03/25 05:34:29;;;;;;;2.10;1.00;;;10.10;53.90;;;;;;20711;6841;119333;-73
2023/03/25 05:36:55;;;;;;;2.30;0.73;;;10.10;53.90;;;;;;20729;6842;123477;-74
2023/03/25 05:39:20;;;;;;;1.20;1.00;;;9.90;55.40;;;;;;20726;6842;120052;-74
2023/03/25 05:41:46;;;;;;;3.22;1.17;;;9.80;55.50;;;;;;20518;6842;311391;-73
2023/03/25 05:44:13;;;;;;;0.90;0.60;;;9.80;55.70;;;;;;20715;6842;119629;-74
2023/03/25 05:46:37;;;;;;;3.03;0.83;;;9.90;55.50;;;;;;20724;6842;119260;-74
2023/03/25 05:49:04;;;;;;;1.77;0.97;;;10.00;54.20;;;;;;20517;6842;341294;-73
2023/03/25 05:51:32;;;;;;;2.27;0.73;;;10.00;54.20;;;;;;20728;6842;117332;-73
2023/03/25 05:53:55;;;;;;;4.55;1.20;;;10.10;54.00;;;;;;20713;6842;119722;-72
2023/03/25 05:56:20;;;;;;;1.40;0.80;;;10.00;54.10;;;;;;20506;6842;288299;-72
2023/03/25 05:58:47;;;;;;;1.70;1.10;;;10.20;54.60;;;;;;20725;6842;121224;-73
2023/03/25 06:01:13;;;;;;;1.77;0.87;;;10.20;53.90;;;;;;20505;6842;308391;-72
2023/03/25 06:03:39;;;;;;;1.62;1.10;;;10.50;52.90;;;;;;20729;6842;119905;-72
2023/03/25 06:06:04;;;;;;;1.47;0.70;;;10.40;53.10;;;;;;20729;6842;119944;-72
2023/03/25 06:08:31;;;;;;;2.10;0.80;;;10.30;53.40;;;;;;20693;6842;117981;-72
2023/03/25 06:10:59;;;;;;;1.97;1.00;;;10.20;53.60;;;;;;20511;6842;327211;-72
2023/03/25 06:13:22;;;;;;;3.00;1.13;;;10.40;53.40;;;;;;20479;6842;307624;-74
2023/03/25 06:15:47;;;;;;;2.13;1.20;;;10.80;52.70;;;;;;20724;6842;120237;-72
2023/03/25 06:18:13;;;;;;;3.20;0.80;;;10.60;52.80;;;;;;20705;6842;120540;-73
2023/03/25 06:20:38;;;;;;;1.30;0.90;;;10.60;52.80;;;;;;20517;6842;278323;-72
2023/03/25 06:23:05;;;;;;;2.70;1.30;;;11.00;51.70;;;;;;20515;6842;307329;-73
2023/03/25 06:25:31;;;;;;;3.37;1.00;;;11.00;51.60;;;;;;20726;6842;123023;-73
2023/03/25 06:28:00;;;;;;;2.10;1.07;;;11.00;51.40;;;;;;20510;6842;308533;-72
2023/03/25 06:30:22;;;;;;;2.70;1.30;;;11.10;51.30;;;;;;20488;6842;287522;-73
2023/03/25 06:32:51;;;;;;;1.92;1.30;;;11.40;50.90;;;;;;20511;6842;280988;-72
2023/03/25 06:35:18;;;;;;;1.07;0.83;;;11.60;49.90;;;;;;20728;6842;121043;-71
2023/03/25 06:37:41;;;;;;;2.70;1.20;;;11.40;50.00;;;;;;20499;6842;278785;-71
2023/03/25 06:40:07;;;;;;;1.43;0.73;;;11.40;50.10;;;;;;20732;6842;117217;-72
2023/03/25 06:42:33;;;;;;;2.33;1.00;;;11.20;50.20;;;;;;20492;6840;336394;-72
2023/03/25 06:44:58;;;;;;;2.77;0.83;;;11.20;49.90;;;;;;20731;6841;117225;-71
2023/03/25 06:47:24;;;;;;;2.07;0.83;;;11.10;50.00;;;;;;20725;6842;119942;-71
2023/03/25 06:49:49;;;;;;;2.17;1.20;;;10.80;50.60;;;;;;20520;6842;340265;-70
2023/03/25 06:52:15;;;;;;;2.25;1.27;;;10.90;51.10;;;;;;20495;6842;307988;-71
2023/03/25 06:54:41;;;;;;;2.40;0.90;;;11.70;50.10;;;;;;20515;6842;307068;-69
2023/03/25 06:57:07;;;;;;;2.33;0.97;;;11.70;50.10;;;;;;20728;6842;120235;-72
2023/03/25 06:59:33;;;;;;;2.03;0.70;;;11.80;50.50;;;;;;20741;6842;117154;-70
2023/03/25 07:01:58;;;;;;;1.57;0.77;;;11.60;50.40;;;;;;20728;6842;119349;-70
2023/03/25 07:04:25;;;;;;;1.80;0.80;;;11.50;51.00;;;;;;20660;6842;117444;-72
2023/03/25 07:07:05;;;;;;;0.93;0.70;;;11.50;50.90;;;;;;20719;6842;90086;-68
2023/03/25 07:09:44;;;;;;;2.17;0.63;;;11.50;51.20;;;;;;20618;6842;119909;-70
2023/03/25 07:12:10;;;;;;;1.23;0.77;;;11.60;51.00;;;;;;20455;6842;278633;-69
2023/03/25 07:14:36;;;;;;;1.73;1.00;;;11.80;49.70;;;;;;20511;6842;311692;-70
2023/03/25 07:17:02;;;;;;;2.33;0.50;;;12.40;48.80;;;;;;20725;6842;119404;-74
2023/03/25 07:19:28;;;;;;;1.20;1.10;;;12.40;48.50;;;;;;20722;6842;121652;-73
2023/03/25 07:21:53;;;;;;;2.07;0.70;;;12.20;48.70;;;;;;20513;6842;278063;-71
2023/03/25 07:24:19;;;;;;;1.30;0.40;;;12.30;48.20;;;;;;20710;6842;117621;-70
2023/03/25 07:26:44;;;;;;;0.90;0.60;;;12.30;48.40;;;;;;20727;6842;117354;-71
2023/03/25 07:29:10;;;;;;;1.27;0.43;;;12.10;48.70;;;;;;20724;6842;117172;-69
2023/03/25 07:31:35;;;;;;;2.63;0.80;;;11.90;49.10;;;;;;20513;6842;337626;-70
2023/03/25 07:34:02;;;;;;;2.10;0.60;;;12.70;48.00;;;;;;20518;6842;278724;-69
2023/03/25 07:36:27;;;;;;;0.50;0.50;;;12.70;47.40;;;;;;20711;6842;122979;-68
2023/03/25 07:38:53;;;;;;;0.80;0.50;;;12.80;47.20;;;;;;20723;6842;117922;-67
2023/03/25 07:41:18;;;;;;;1.37;1.23;;;12.70;47.50;;;;;;20489;6842;295574;-74
2023/03/25 07:43:44;;;;;;;3.50;3.20;;;13.00;46.50;;;;;;20711;6842;117131;-72
2023/03/25 07:46:10;;;;;;;3.58;3.28;;;13.00;46.40;;;;;;20437;6842;286168;-74
2023/03/25 07:48:35;;;;;;;1.97;1.87;;;13.20;45.80;;;;;;20696;6842;117347;-71
2023/03/25 07:51:01;;;;;;;0.93;0.67;;;13.20;45.70;;;;;;20511;6842;278271;-72
2023/03/25 07:53:27;;;;;;;0.90;0.60;;;13.40;45.40;;;;;;20507;6840;307630;-73
2023/03/25 07:55:52;;;;;;;1.15;0.60;;;13.80;45.30;;;;;;20514;6841;336303;-71
2023/03/25 07:58:18;;;;;;;0.90;0.82;;;14.10;44.60;;;;;;20485;6842;337109;-70
2023/03/25 08:00:43;;;;;;;2.00;1.87;;;14.40;43.40;;;;;;20514;6842;307834;-72
2023/03/25 08:03:10;;;;;;;2.00;1.90;;;14.20;42.90;;;;;;20706;6842;117128;-71
2023/03/25 08:05:36;;;;;;;2.13;2.03;;;14.20;42.90;;;;;;20495;6842;278097;-72
2023/03/25 08:08:02;;;;;;;1.45;0.88;;;14.20;43.20;;;;;;20716;6842;117606;-73
2023/03/25 08:10:27;;;;;;;1.43;0.60;;;14.00;43.60;;;;;;20683;6842;140408;-74
2023/03/25 08:12:53;;;;;;;0.53;0.53;;;13.80;44.20;;;;;;20728;6842;117429;-73
2023/03/25 08:15:19;;;;;;;0.83;0.73;;;13.50;44.10;;;;;;20729;6842;116963;-74
2023/03/25 08:17:47;;;;;;;1.60;1.13;;;13.30;44.60;;;;;;20468;6842;310006;-73
2023/03/25 08:20:13;;;;;;;1.30;0.70;;;13.40;45.10;;;;;;20464;6842;310053;-73
2023/03/25 08:22:38;;;;;;;1.17;0.60;;;13.80;44.70;;;;;;20701;6842;117456;-74
2023/03/25 08:25:04;;;;;;;0.90;0.60;;;13.80;44.50;;;;;;20696;6842;117363;-75
2023/03/25 08:27:30;;;;;;;1.13;0.40;;;13.70;45.00;;;;;;20687;6842;117222;-73
2023/03/25 08:29:58;;;;;;;1.70;0.40;;;13.50;45.10;;;;;;20684;6842;117329;-73
2023/03/25 08:32:22;;;;;;;1.00;0.50;;;13.40;45.40;;;;;;20456;6842;278161;-72
2023/03/25 08:34:48;;;;;;;0.73;0.70;;;13.70;45.30;;;;;;20493;6842;308614;-72
2023/03/25 08:37:14;;;;;;;1.70;0.70;;;14.10;44.50;;;;;;20525;6842;278002;-72
2023/03/25 08:39:41;;;;;;;0.63;0.40;;;14.50;44.50;;;;;;20529;6842;281327;-71
2023/03/25 08:42:05;;;;;;;0.47;0.30;;;14.80;43.30;;;;;;20726;6842;117322;-73
2023/03/25 08:44:30;;;;;;;0.75;0.50;;;14.70;43.20;;;;;;20507;6842;277985;-73
2023/03/25 08:46:57;;;;;;;0.50;0.50;;;14.80;42.90;;;;;;20521;6842;311544;-74
2023/03/25 08:49:22;;;;;;;0.83;0.50;;;14.80;42.70;;;;;;20486;6842;277733;-72
2023/03/25 08:51:48;;;;;;;1.30;0.57;;;15.00;43.00;;;;;;20467;6842;308198;-72
2023/03/25 08:54:13;;;;;;;1.30;0.57;;;15.10;43.40;;;;;;20454;6842;290233;-72
2023/03/25 08:56:39;;;;;;;1.90;0.70;;;15.40;43.40;;;;;;20479;6842;280930;-72
2023/03/25 08:59:05;;;;;;;1.70;0.50;;;15.60;42.70;;;;;;20470;6842;310274;-75
2023/03/25 09:01:30;;;;;;;0.98;0.60;;;15.70;42.10;;;;;;20498;6842;306974;-73
2023/03/25 09:03:56;;;;;;;1.80;0.60;;;15.80;41.70;;;;;;20487;6842;309320;-73
2023/03/25 09:06:21;;;;;;;1.67;0.70;;;15.90;42.10;;;;;;20705;6840;123749;-72
2023/03/25 09:08:47;;;;;;;0.63;0.47;;;15.70;42.00;;;;;;20508;6841;306275;-73
2023/03/25 09:11:14;;;;;;;1.37;0.70;;;15.70;42.10;;;;;;20519;6842;278744;-73
2023/03/25 09:13:38;;;;;;;0.30;0.30;;;15.80;41.80;;;;;;20718;6842;117259;-72
2023/03/25 09:16:04;;;;;;;0.73;0.55;;;15.70;41.90;;;;;;20521;6842;282501;-72
2023/03/25 09:18:30;;;;;;;0.60;0.53;;;15.70;42.50;;;;;;20504;6842;278154;-73
2023/03/25 09:20:59;;;;;;;0.80;0.50;;;15.70;41.40;;;;;;20733;6842;117544;-72
2023/03/25 09:23:25;;;;;;;0.70;0.60;;;15.70;41.40;;;;;;20521;6842;277087;-71
2023/03/25 09:25:50;;;;;;;1.80;0.67;;;15.60;41.10;;;;;;20731;6842;117333;-71
2023/03/25 09:28:17;;;;;;;0.70;0.70;;;15.20;41.50;;;;;;20712;6842;120726;-70
2023/03/25 09:30:43;;;;;;;0.65;0.62;;;15.20;41.40;;;;;;20501;6842;336563;-69
2023/03/25 09:33:11;;;;;;;1.60;0.70;;;15.20;41.30;;;;;;20514;6842;307013;-70
2023/03/25 09:35:36;;;;;;;1.83;0.50;;;15.40;41.90;;;;;;20691;6842;117115;-69
2023/03/25 09:38:01;;;;;;;1.17;0.60;;;15.30;42.00;;;;;;20718;6842;121116;-69
2023/03/25 09:40:27;;;;;;;0.43;0.43;;;14.90;42.30;;;;;;20675;6842;122975;-70
2023/03/25 09:42:57;;;;;;;1.10;0.30;;;14.70;42.40;;;;;;20699;6842;117556;-70
2023/03/25 09:45:28;;;;;;;1.50;0.70;;;14.50;42.80;;;;;;20453;6842;314030;-69
2023/03/25 09:47:54;;;;;;;0.50;0.50;;;14.70;42.80;;;;;;20462;6842;310380;-69
2023/03/25 09:50:19;;;;;;;0.80;0.60;;;15.10;42.70;;;;;;20434;6842;340726;-69
2023/03/25 09:53:11;;;;;;;0.85;0.30;;;15.50;41.40;;;;;;20681;6842;120031;-69
2023/03/25 09:55:39;;;;;;;3.40;0.40;;;15.50;41.60;;;;;;20681;6842;117190;-69
2023/03/25 09:58:22;;;;;;;0.70;0.47;;;14.80;41.50;;;;;;20721;6842;117742;-69
2023/03/25 10:01:14;;;;;;;0.77;0.47;;;14.80;41.50;;;;;;20499;6842;117335;-70
2023/03/25 10:04:02;;;;;;;0.60;0.50;;;14.50;41.90;;;;;;20511;6842;277632;-69
2023/03/25 10:06:28;;;;;;;1.70;0.62;;;14.50;42.50;;;;;;20507;6842;286914;-69
2023/03/25 10:09:13;;;;;;;0.90;0.45;;;14.70;42.70;;;;;;20509;6842;307430;-70
2023/03/25 10:11:46;;;;;;;2.00;0.60;;;14.70;42.90;;;;;;20721;6842;120425;-70
2023/03/25 10:14:18;;;;;;;5.83;0.87;;;14.70;42.90;;;;;;20635;6842;117747;-69
2023/03/25 10:17:03;;;;;;;5.77;0.83;;;14.30;43.40;;;;;;20719;6840;118206;-68
2023/03/25 10:19:42;;;;;;;3.13;0.50;;;14.00;44.10;;;;;;20703;6841;117632;-68
2023/03/25 10:22:08;;;;;;;4.30;0.95;;;13.70;44.80;;;;;;20515;6842;300980;-69
2023/03/25 10:24:37;;;;;;;2.78;0.70;;;14.20;46.90;;;;;;20466;6842;318434;-70
2023/03/25 10:27:02;;;;;;;2.80;0.60;;;14.20;46.90;;;;;;20351;6847;117333;-71
2023/03/25 10:29:47;;;;;;;1.10;0.70;;;14.20;46.40;;;;;;20687;6841;117748;-70
2023/03/25 10:32:16;;;;;;;2.65;0.75;;;13.90;46.20;;;;;;20455;6841;278735;-71
2023/03/25 10:34:42;;;;;;;1.87;0.70;;;13.90;48.10;;;;;;20678;6841;117780;-70
2023/03/25 10:37:11;;;;;;;1.10;0.70;;;13.70;47.90;;;;;;20480;6841;278220;-71
2023/03/25 10:39:38;;;;;;;1.10;0.65;;;13.80;48.70;;;;;;20482;6841;278876;-73
2023/03/25 10:42:02;;;;;;;0.60;0.60;;;14.00;48.80;;;;;;20692;6841;117174;-76
2023/03/25 10:44:27;;;;;;;1.25;1.15;;;13.90;48.50;;;;;;20420;6841;454507;-71
2023/03/25 10:46:59;;;;;;;1.87;1.00;;;14.00;50.60;;;;;;20521;6841;281980;-70
2023/03/25 10:49:25;;;;;;;1.92;1.02;;;14.30;50.40;;;;;;20513;6841;340756;-71
2023/03/25 10:51:53;;;;;;;1.10;1.10;;;14.70;50.10;;;;;;20705;6841;117167;-72
2023/03/25 10:54:17;;;;;;;0.80;0.80;;;14.70;49.70;;;;;;20693;6841;117735;-72
2023/03/25 10:56:43;;;;;;;1.00;0.90;;;14.70;50.20;;;;;;20718;6841;117868;-72
2023/03/25 10:59:26;;;;;;;1.70;1.10;;;15.00;50.30;;;;;;20492;6841;277658;-72
2023/03/25 11:01:51;;;;;;;1.03;1.00;;;15.00;50.30;;;;;;20498;6841;307744;-73
2023/03/25 11:04:17;;;;;;;2.07;1.20;;;15.60;49.80;;;;;;20483;6841;278496;-75
2023/03/25 11:06:53;;;;;;;2.40;1.05;;;16.20;49.10;;;;;;20498;6841;341214;-75
2023/03/25 11:09:22;;;;;;;1.57;1.47;;;16.60;46.80;;;;;;20612;6841;118339;-75
2023/03/25 11:11:46;;;;;;;1.63;1.53;;;16.70;45.80;;;;;;20683;6841;117674;-74
2023/03/25 11:14:12;;;;;;;2.23;1.50;;;16.50;45.70;;;;;;20696;6841;117761;-73
2023/03/25 11:16:49;;;;;;;1.57;0.90;;;16.40;45.10;;;;;;20718;6841;117787;-72
2023/03/25 11:19:15;;;;;;;0.97;0.97;;;15.90;44.20;;;;;;20680;6841;117128;-74
2023/03/25 11:21:41;;;;;;;0.97;0.80;;;15.90;44.20;;;;;;20530;6841;117168;-75
2023/03/25 11:24:06;;;;;;;1.40;0.73;;;15.70;43.70;;;;;;20494;6841;307110;-74
2023/03/25 11:26:36;;;;;;;0.97;0.97;;;15.80;42.50;;;;;;20702;6841;123777;-73
2023/03/25 11:29:12;;;;;;;0.98;0.80;;;15.80;42.60;;;;;;20493;6840;336527;-73
2023/03/25 11:31:38;;;;;;;0.70;0.70;;;15.90;41.50;;;;;;20502;6841;281467;-72
2023/03/25 11:34:11;;;;;;;0.80;0.60;;;16.10;41.30;;;;;;20712;6841;117612;-75
2023/03/25 11:36:39;;;;;;;1.43;1.33;;;15.90;42.00;;;;;;20720;6841;67398;-72
2023/03/25 11:39:15;;;;;;;1.30;1.10;;;15.40;43.70;;;;;;20706;6841;116908;-73
2023/03/25 11:41:40;;;;;;;1.07;0.70;;;15.40;43.80;;;;;;20722;6841;117191;-75
2023/03/25 11:44:06;;;;;;;1.27;1.00;;;15.40;44.00;;;;;;20715;6841;117617;-76
2023/03/25 11:46:32;;;;;;;1.00;0.90;;;15.30;43.60;;;;;;20486;6841;277763;-76
2023/03/25 11:48:58;;;;;;;1.10;0.80;;;15.90;42.70;;;;;;20498;6841;277738;-75
2023/03/25 11:51:23;;;;;;;0.50;0.50;;;15.90;42.60;;;;;;20673;6841;117003;-74
2023/03/25 11:53:56;;;;;;;0.57;0.57;;;16.00;42.30;;;;;;20697;6841;117588;-74
2023/03/25 11:56:22;;;;;;;1.30;0.73;;;15.90;41.20;;;;;;20473;6841;307334;-75
2023/03/25 11:58:48;;;;;;;1.00;0.90;;;15.80;41.10;;;;;;20458;6841;308780;-77
2023/03/25 12:01:23;;;;;;;1.37;0.68;;;16.10;40.80;;;;;;20491;6841;309416;-74
2023/03/25 12:03:52;;;;;;;1.00;0.70;;;16.40;39.90;;;;;;20724;6841;117633;-74
2023/03/25 12:06:18;;;;;;;0.73;0.60;;;16.30;40.40;;;;;;20708;6841;117733;-74
2023/03/25 12:08:50;;;;;;;0.73;0.60;;;16.20;40.80;;;;;;20717;6841;118071;-74
2023/03/25 12:11:35;;;;;;;2.97;0.60;;;16.00;41.10;;;;;;20714;6841;118898;-72
2023/03/25 12:14:17;;;;;;;4.53;0.77;;;15.90;41.20;;;;;;20695;6841;120405;-73
2023/03/25 12:17:01;;;;;;;0.77;0.60;;;15.70;40.60;;;;;;20427;6841;277786;-73
2023/03/25 12:19:50;;;;;;;0.73;0.50;;;15.90;40.20;;;;;;20545;6841;117280;-70
2023/03/25 12:22:44;;;;;;;1.27;0.60;;;16.00;40.40;;;;;;19848;6850;311944;-75
2023/03/25 12:25:34;;;;;;;0.62;0.50;;;16.50;39.50;;;;;;20447;6847;336420;-78
2023/03/25 12:28:05;;;;;;;1.47;0.73;;;16.50;39.50;;;;;;20535;6860;120372;-73
2023/03/25 12:30:57;;;;;;;1.63;0.57;;;16.50;39.50;;;;;;20393;6862;281323;-73
2023/03/25 12:33:35;;;;;;;1.67;0.60;;;16.70;39.30;;;;;;20428;6862;278796;-74
2023/03/25 12:36:11;;;;;;;1.00;0.70;;;16.90;37.50;;;;;;20468;6847;338282;-75
2023/03/25 12:38:43;;;;;;;2.12;0.60;;;17.10;38.60;;;;;;20437;6859;312090;-74
2023/03/25 12:41:12;;;;;;;2.08;0.60;;;17.10;38.70;;;;;;20132;6831;310824;-74
2023/03/25 12:44:00;;;;;;;0.20;0.20;;;17.10;40.00;;;;;;20739;6831;117486;-73